Map

Track Data

SID SEASON NUMBER BASIN SUBBASIN NAME ISO_TIME NATURE LAT LON WMO_WIND WMO_PRES WMO_AGENCY TRACK_TYPE DIST2LAND LANDFALL IFLAG USA_AGENCY USA_ATCF_ID USA_LAT USA_LON USA_RECORD USA_STATUS USA_WIND USA_PRES USA_SSHS USA_R34_NE USA_R34_SE USA_R34_SW USA_R34_NW USA_R50_NE USA_R50_SE USA_R50_SW USA_R50_NW USA_R64_NE USA_R64_SE USA_R64_SW USA_R64_NW USA_POCI USA_ROCI USA_RMW USA_EYE TOKYO_LAT TOKYO_LON TOKYO_GRADE TOKYO_WIND TOKYO_PRES TOKYO_R50_DIR TOKYO_R50_LONG TOKYO_R50_SHORT TOKYO_R30_DIR TOKYO_R30_LONG TOKYO_R30_SHORT TOKYO_LAND CMA_LAT CMA_LON CMA_CAT CMA_WIND CMA_PRES HKO_LAT HKO_LON HKO_CAT HKO_WIND HKO_PRES NEWDELHI_LAT NEWDELHI_LON NEWDELHI_GRADE NEWDELHI_WIND NEWDELHI_PRES NEWDELHI_CI NEWDELHI_DP NEWDELHI_POCI REUNION_LAT REUNION_LON REUNION_TYPE REUNION_WIND REUNION_PRES REUNION_TNUM REUNION_CI REUNION_RMW REUNION_R34_NE REUNION_R34_SE REUNION_R34_SW REUNION_R34_NW REUNION_R50_NE REUNION_R50_SE REUNION_R50_SW REUNION_R50_NW REUNION_R64_NE REUNION_R64_SE REUNION_R64_SW REUNION_R64_NW BOM_LAT BOM_LON BOM_TYPE BOM_WIND BOM_PRES BOM_TNUM BOM_CI BOM_RMW BOM_R34_NE BOM_R34_SE BOM_R34_SW BOM_R34_NW BOM_R50_NE BOM_R50_SE BOM_R50_SW BOM_R50_NW BOM_R64_NE BOM_R64_SE BOM_R64_SW BOM_R64_NW BOM_ROCI BOM_POCI BOM_EYE BOM_POS_METHOD BOM_PRES_METHOD NADI_LAT NADI_LON NADI_CAT NADI_WIND NADI_PRES WELLINGTON_LAT WELLINGTON_LON WELLINGTON_WIND WELLINGTON_PRES DS824_LAT DS824_LON DS824_STAGE DS824_WIND DS824_PRES TD9636_LAT TD9636_LON TD9636_STAGE TD9636_WIND TD9636_PRES TD9635_LAT TD9635_LON TD9635_WIND TD9635_PRES TD9635_ROCI NEUMANN_LAT NEUMANN_LON NEUMANN_CLASS NEUMANN_WIND NEUMANN_PRES MLC_LAT MLC_LON MLC_CLASS MLC_WIND MLC_PRES USA_GUST BOM_GUST BOM_GUST_PER REUNION_GUST REUNION_GUST_PER USA_SEAHGT USA_SEARAD_NE USA_SEARAD_SE USA_SEARAD_SW USA_SEARAD_NW STORM_SPEED STORM_DIR
1872092S23053 1872 12 SI MM NOT_NAMED 1872-04-01 06:00:00 NR -23.3000 53.0000 reunion main 325 325 _____O________ -1 -23.3000 53.0000 99 9.90000 3 145
1872092S23053 1872 12 SI MM NOT_NAMED 1872-04-01 09:00:00 NR -23.4328 53.1067 main 325 325 _____P________ -1 -23.4328 53.1067 99 3 144
1872092S23053 1872 12 SI MM NOT_NAMED 1872-04-01 12:00:00 NR -23.5685 53.2165 main 335 329 _____P________ -1 -23.5685 53.2165 99 3 143
1872092S23053 1872 12 SI MM NOT_NAMED 1872-04-01 15:00:00 NR -23.7097 53.3321 main 337 331 _____P________ -1 -23.7097 53.3321 99 4 143
1872092S23053 1872 12 SI MM NOT_NAMED 1872-04-01 18:00:00 NR -23.8595 53.4565 main 344 344 _____P________ -1 -23.8595 53.4565 99 4 143
1872092S23053 1872 12 SI MM NOT_NAMED 1872-04-01 21:00:00 NR -24.0206 53.5925 main 348 348 _____P________ -1 -24.0206 53.5925 99 4 142
1872092S23053 1872 12 SI MM NOT_NAMED 1872-04-02 00:00:00 NR -24.1958 53.7431 main 363 358 _____P________ -1 -24.1958 53.7431 99 5 142
1872092S23053 1872 12 SI MM NOT_NAMED 1872-04-02 03:00:00 NR -24.3880 53.9113 main 375 371 _____P________ -1 -24.3880 53.9113 99 5 141
1872092S23053 1872 12 SI MM NOT_NAMED 1872-04-02 06:00:00 NR -24.6000 54.1000 reunion main 388 388 _____O________ -1 -24.6000 54.1000 99 9.90000 6 141
1872092S23053 1872 12 SI MM NOT_NAMED 1872-04-02 09:00:00 NR -24.8333 54.3112 main 402 402 _____P________ -1 -24.8333 54.3112 99 6 140
1872092S23053 1872 12 SI MM NOT_NAMED 1872-04-02 12:00:00 NR -25.0843 54.5420 main 428 425 _____P________ -1 -25.0843 54.5420 99 7 140
1872092S23053 1872 12 SI MM NOT_NAMED 1872-04-02 15:00:00 NR -25.3484 54.7881 main 443 443 _____P________ -1 -25.3484 54.7881 99 7 140
1872092S23053 1872 12 SI MM NOT_NAMED 1872-04-02 18:00:00 NR -25.6208 55.0455 main 473 472 _____P________ -1 -25.6208 55.0455 99 7 139
1872092S23053 1872 12 SI MM NOT_NAMED 1872-04-02 21:00:00 NR -25.8969 55.3098 main 503 503 _____P________ -1 -25.8969 55.3098 99 7 139
1872092S23053 1872 12 SI MM NOT_NAMED 1872-04-03 00:00:00 NR -26.1718 55.5766 main 536 536 _____P________ -1 -26.1718 55.5766 99 7 139
1872092S23053 1872 12 SI MM NOT_NAMED 1872-04-03 03:00:00 NR -26.4411 55.8415 main 559 559 _____P________ -1 -26.4411 55.8415 99 7 138
1872092S23053 1872 12 SI MM NOT_NAMED 1872-04-03 06:00:00 NR -26.7000 56.1000 reunion main 594 594 _____O________ -1 -26.7000 56.1000 99 9.90000 7 139
1872092S23053 1872 12 SI MM NOT_NAMED 1872-04-03 09:00:00 NR -26.9422 56.3387 main 618 618 _____P________ -1 -26.9422 56.3387 99 6 138
1872092S23053 1872 12 SI MM NOT_NAMED 1872-04-03 12:00:00 NR -27.1775 56.5734 main 655 655 _____P________ -1 -27.1775 56.5734 99 6 138
1872092S23053 1872 12 SI MM NOT_NAMED 1872-04-03 15:00:00 NR -27.4052 56.8041 main 681 681 _____P________ -1 -27.4052 56.8041 99 6 138
1872092S23053 1872 12 SI MM NOT_NAMED 1872-04-03 18:00:00 NR -27.6243 57.0310 main 707 707 _____P________ -1 -27.6243 57.0310 99 6 137
1872092S23053 1872 12 SI MM NOT_NAMED 1872-04-03 21:00:00 NR -27.8341 57.2539 main 735 735 _____P________ -1 -27.8341 57.2539 99 6 136
1872092S23053 1872 12 SI MM NOT_NAMED 1872-04-04 00:00:00 NR -28.0339 57.4731 main 761 761 _____P________ -1 -28.0339 57.4731 99 5 135
1872092S23053 1872 12 SI MM NOT_NAMED 1872-04-04 03:00:00 NR -28.2228 57.6884 main 788 788 _____P________ -1 -28.2228 57.6884 99 5 134
1872092S23053 1872 12 SI MM NOT_NAMED 1872-04-04 06:00:00 NR -28.4000 57.9000 reunion main 815 815 _____O________ -1 -28.4000 57.9000 99 9.90000 5 133
1872092S23053 1872 12 SI MM NOT_NAMED 1872-04-04 09:00:00 NR -28.5651 58.1079 main 842 842 _____P________ -1 -28.5651 58.1079 99 5 131
1872092S23053 1872 12 SI MM NOT_NAMED 1872-04-04 12:00:00 NR -28.7193 58.3125 main 859 859 _____P________ -1 -28.7193 58.3125 99 5 130
1872092S23053 1872 12 SI MM NOT_NAMED 1872-04-04 15:00:00 NR -28.8640 58.5144 main 887 887 _____P________ -1 -28.8640 58.5144 99 5 129
1872092S23053 1872 12 SI MM NOT_NAMED 1872-04-04 18:00:00 NR -29.0009 58.7139 main 904 904 _____P________ -1 -29.0009 58.7139 99 4 128
1872092S23053 1872 12 SI MM NOT_NAMED 1872-04-04 21:00:00 NR -29.1314 58.9117 main 921 921 _____P________ -1 -29.1314 58.9117 99 4 127
1872092S23053 1872 12 SI MM NOT_NAMED 1872-04-05 00:00:00 NR -29.2571 59.1083 main 949 949 _____P________ -1 -29.2571 59.1083 99 4 126
1872092S23053 1872 12 SI MM NOT_NAMED 1872-04-05 03:00:00 NR -29.3794 59.3042 main 967 967 _____P________ -1 -29.3794 59.3042 99 4 125
1872092S23053 1872 12 SI MM NOT_NAMED 1872-04-05 06:00:00 NR -29.5000 59.5000 reunion main 985 _____O________ -1 -29.5000 59.5000 99 9.90000 4 125

About IBTrACS Database

This database is a web-friendly format of International Best Track Archive for Climate Stewardship (IBTrACS), a global best track data archive curated by NOAA dating back to 1842.

Updated: 2021-11-26